Time;durP1;ratioP1;P1;durP2;ratioP2;P2;SDS_P1;SDS_P2;PMS_P1;PMS_P2;Temp;Humidity;BMP_temperature;BMP_pressure;BME280_temperature;BME280_humidity;BME280_pressure;Samples;Min_cycle;Max_cycle;Signal;HPM_P1;HPM_P2
2023/08/11 00:01:41;;;;;;;8.55;1.60;;;;;;;16.43;84.78;101494.50;6101691;28;20029;-65
2023/08/11 00:04:37;;;;;;;5.10;1.60;;;;;;;16.37;85.22;101488.97;6100616;28;20025;-65
2023/08/11 00:07:33;;;;;;;8.93;1.83;;;;;;;16.35;86.21;101470.41;6099751;28;20025;-65
2023/08/11 00:10:28;;;;;;;6.38;2.00;;;;;;;16.44;86.17;101487.31;6105179;28;20855;-65
2023/08/11 00:13:23;;;;;;;7.53;1.80;;;;;;;16.42;85.95;101492.81;6109542;28;20476;-65
2023/08/11 00:16:19;;;;;;;3.75;1.70;;;;;;;16.43;85.75;101494.50;6101237;28;20040;-65
2023/08/11 00:19:14;;;;;;;5.40;1.30;;;;;;;16.51;85.57;101496.34;6100781;28;20056;-66
2023/08/11 00:22:09;;;;;;;4.57;1.60;;;;;;;16.32;85.84;101467.22;6111392;28;20112;-65
2023/08/11 00:25:05;;;;;;;8.63;1.77;;;;;;;16.41;85.74;101491.16;6100201;28;20033;-66
2023/08/11 00:28:00;;;;;;;4.13;1.50;;;;;;;16.36;85.34;101482.75;6100520;28;20281;-65
2023/08/11 00:30:56;;;;;;;13.13;1.80;;;;;;;16.42;85.38;101487.47;6090904;28;20056;-65
2023/08/11 00:33:52;;;;;;;5.53;1.70;;;;;;;16.50;85.57;101490.16;6099841;28;20025;-65
2023/08/11 00:36:47;;;;;;;6.90;1.50;;;;;;;16.64;83.75;101465.44;6100674;28;20029;-65
2023/08/11 00:39:42;;;;;;;4.07;1.83;;;;;;;16.64;83.87;101454.72;6100392;28;20290;-65
2023/08/11 00:42:37;;;;;;;8.87;2.00;;;;;;;16.87;83.47;101479.00;6106081;28;20048;-65
2023/08/11 00:45:33;;;;;;;4.57;1.67;;;;;;;16.77;82.50;101464.13;6099743;28;20031;-65
2023/08/11 00:48:28;;;;;;;9.27;1.83;;;;;;;16.72;82.89;101464.59;6115596;28;20029;-65
2023/08/11 00:51:24;;;;;;;9.30;1.53;;;;;;;16.74;84.57;101489.38;6099266;28;20115;-65
2023/08/11 00:54:19;;;;;;;10.48;1.92;;;;;;;16.61;85.69;101473.81;6099472;28;20027;-66
2023/08/11 00:57:14;;;;;;;8.30;2.23;;;;;;;16.65;86.23;101488.56;6099884;28;20368;-65
2023/08/11 01:00:14;;;;;;;6.87;1.53;;;;;;;16.46;86.22;101478.13;6099941;28;20291;-65
2023/08/11 01:03:09;;;;;;;6.80;1.77;;;;;;;16.43;86.50;101473.09;6109370;28;20029;-65
2023/08/11 01:06:32;;;;;;;7.10;1.73;;;;;;;16.63;86.91;101492.41;6095435;28;20475;-65
2023/08/11 01:09:54;;;;;;;8.35;1.85;;;;;;;16.43;86.89;101474.94;6098471;28;20039;-65
2023/08/11 01:13:05;;;;;;;4.72;1.50;;;;;;;16.55;87.83;101481.69;6114381;28;20059;-65
2023/08/11 01:16:01;;;;;;;6.18;1.80;;;;;;;16.59;88.67;101465.09;6109994;28;20036;-66
2023/08/11 01:18:57;;;;;;;6.57;1.40;;;;;;;16.52;88.02;101466.72;6098401;28;20036;-65
2023/08/11 01:21:55;;;;;;;6.30;1.90;;;;;;;16.57;89.62;101461.75;6115078;28;20049;-65
2023/08/11 01:24:51;;;;;;;7.40;1.90;;;;;;;16.75;90.35;101472.31;6097487;28;21387;-65
2023/08/11 01:27:56;;;;;;;6.90;1.65;;;;;;;17.06;89.66;101475.13;6099398;28;20036;-65
2023/08/11 01:30:52;;;;;;;5.70;1.83;;;;;;;17.20;85.79;101450.34;6099716;28;20036;-66
2023/08/11 01:33:47;;;;;;;8.43;1.63;;;;;;;16.93;86.29;101432.75;6098731;28;20074;-65
2023/08/11 01:36:42;;;;;;;7.83;1.70;;;;;;;16.89;86.98;101452.88;6098984;28;20059;-65
2023/08/11 01:39:38;;;;;;;6.90;1.50;;;;;;;16.92;86.11;101467.78;6099134;28;20472;-66
2023/08/11 01:42:34;;;;;;;7.10;1.60;;;;;;;16.75;86.85;101464.25;6102755;28;20674;-65
2023/08/11 01:45:29;;;;;;;3.65;1.55;;;;;;;16.61;88.52;101451.53;6098153;28;20043;-65
2023/08/11 01:48:25;;;;;;;6.05;1.63;;;;;;;16.57;90.01;101453.72;6099009;28;20467;-65
2023/08/11 01:51:21;;;;;;;5.45;1.70;;;;;;;16.48;91.96;101454.69;6095789;28;20029;-65
2023/08/11 01:54:17;;;;;;;8.10;2.80;;;;;;;16.40;92.46;101454.69;6096954;28;20028;-65
2023/08/11 01:57:13;;;;;;;7.22;2.28;;;;;;;16.52;92.49;101469.41;6098567;28;20025;-66
2023/08/11 02:00:12;;;;;;;3.58;1.55;;;;;;;16.48;91.51;101456.53;6097440;28;20024;-66
2023/08/11 02:03:07;;;;;;;5.93;2.13;;;;;;;16.42;91.94;101450.00;6117548;28;20047;-65
2023/08/11 02:06:02;;;;;;;6.13;1.80;;;;;;;16.67;94.29;101454.41;6099136;28;20041;-66
2023/08/11 02:08:58;;;;;;;4.88;1.80;;;;;;;16.59;90.89;101465.09;6098273;28;20492;-65
2023/08/11 02:11:53;;;;;;;5.55;1.73;;;;;;;16.64;90.31;101470.78;6107572;28;20099;-65
2023/08/11 02:14:48;;;;;;;4.80;1.60;;;;;;;16.77;89.05;101467.59;6104824;28;20518;-65
2023/08/11 02:17:44;;;;;;;7.60;1.70;;;;;;;16.64;88.99;101460.09;6098382;28;20033;-65
2023/08/11 02:20:39;;;;;;;5.50;1.63;;;;;;;16.54;88.74;101442.50;6098390;28;20029;-66
2023/08/11 02:23:34;;;;;;;2.85;1.75;;;;;;;16.50;88.08;101447.31;6097486;28;20029;-65
2023/08/11 02:26:30;;;;;;;6.97;2.10;;;;;;;16.80;87.62;101447.69;6098005;28;20400;-65
2023/08/11 02:29:25;;;;;;;3.60;1.50;;;;;;;16.75;87.73;101450.88;6097701;28;20033;-65
2023/08/11 02:32:21;;;;;;;9.70;1.67;;;;;;;16.74;87.65;101451.06;6098321;28;20120;-65
2023/08/11 02:35:17;;;;;;;8.68;1.77;;;;;;;16.53;88.08;101441.66;6097065;28;20037;-66
2023/08/11 02:38:13;;;;;;;5.10;1.77;;;;;;;16.64;87.72;101444.00;6097880;28;20031;-65
2023/08/11 02:41:08;;;;;;;6.35;1.95;;;;;;;16.74;88.21;101448.38;6099709;28;20032;-66
2023/08/11 02:44:04;;;;;;;4.00;1.70;;;;;;;16.73;87.06;101446.69;6097345;28;20395;-65
2023/08/11 02:46:59;;;;;;;5.55;1.58;;;;;;;16.62;87.76;101435.31;6097613;28;20367;-65
2023/08/11 02:49:55;;;;;;;5.93;1.93;;;;;;;16.67;87.50;101443.69;6097565;28;20388;-65
2023/08/11 02:52:50;;;;;;;10.63;2.17;;;;;;;16.62;87.96;101432.63;6097561;28;20027;-65
2023/08/11 02:55:46;;;;;;;5.67;1.53;;;;;;;16.59;87.72;101430.28;6096756;28;20060;-65
2023/08/11 02:58:42;;;;;;;5.53;1.77;;;;;;;16.65;87.89;101421.59;6097516;28;20033;-65
2023/08/11 03:01:37;;;;;;;8.35;2.00;;;;;;;16.81;87.83;101433.28;6106715;28;20025;-65
2023/08/11 03:04:36;;;;;;;5.27;1.90;;;;;;;16.77;87.00;101422.06;6098050;28;20036;-65
2023/08/11 03:07:31;;;;;;;6.95;1.83;;;;;;;16.83;87.29;101432.13;6097520;28;20029;-65
2023/08/11 03:10:26;;;;;;;7.10;1.70;;;;;;;16.70;87.78;101417.56;6097032;28;20033;-65
2023/08/11 03:13:22;;;;;;;8.10;1.57;;;;;;;16.93;86.95;101440.00;6096762;28;20510;-65
2023/08/11 03:16:17;;;;;;;5.33;2.03;;;;;;;17.08;88.09;101441.81;6097174;28;20035;-65
2023/08/11 03:19:12;;;;;;;4.72;1.45;;;;;;;17.09;86.84;101422.00;6096909;28;20733;-65
2023/08/11 03:22:08;;;;;;;7.90;1.53;;;;;;;17.18;85.04;101436.25;6103188;28;20037;-65
2023/08/11 03:25:03;;;;;;;6.87;1.57;;;;;;;17.19;84.92;101438.75;6096409;28;20021;-65
2023/08/11 03:27:59;;;;;;;3.97;1.45;;;;;;;17.35;88.31;101435.19;6100348;28;20259;-65
2023/08/11 03:30:54;;;;;;;6.33;1.33;;;;;;;17.23;86.02;101418.63;6093965;28;20457;-66
2023/08/11 03:33:50;;;;;;;4.97;1.58;;;;;;;17.17;84.74;101423.88;6101206;28;20033;-66
2023/08/11 03:36:45;;;;;;;3.77;1.30;;;;;;;17.34;84.05;101425.47;6101998;28;20025;-66
2023/08/11 03:39:41;;;;;;;6.43;1.40;;;;;;;17.07;83.81;101417.84;6101802;28;20283;-65
2023/08/11 03:42:36;;;;;;;4.05;1.60;;;;;;;17.19;83.90;101437.91;6102555;28;20051;-65
2023/08/11 03:45:32;;;;;;;4.73;1.73;;;;;;;17.02;83.49;101437.13;6101160;28;20024;-65
2023/08/11 03:48:27;;;;;;;4.00;1.33;;;;;;;16.91;84.28;101442.81;6103708;28;20418;-65
2023/08/11 03:51:22;;;;;;;4.50;1.73;;;;;;;17.07;84.17;101428.56;6110781;28;20032;-65
2023/08/11 03:54:17;;;;;;;4.57;1.73;;;;;;;17.19;85.30;101444.13;6107018;28;20158;-65
2023/08/11 03:57:13;;;;;;;7.77;1.60;;;;;;;17.00;83.61;101438.28;6101661;28;20036;-65
2023/08/11 04:00:14;;;;;;;5.43;1.50;;;;;;;17.10;83.85;101452.34;6101203;28;20020;-66
2023/08/11 04:03:10;;;;;;;6.22;1.55;;;;;;;16.89;83.88;101441.31;6108525;28;20029;-65
2023/08/11 04:06:05;;;;;;;6.53;1.52;;;;;;;17.13;83.10;101462.72;6099092;28;20028;-65
2023/08/11 04:09:00;;;;;;;3.97;1.60;;;;;;;16.89;83.78;101426.09;6100950;28;20055;-65
2023/08/11 04:11:56;;;;;;;11.25;1.73;;;;;;;16.92;84.44;101446.34;6108260;28;20033;-65
2023/08/11 04:14:52;;;;;;;4.10;1.40;;;;;;;17.04;84.64;101445.81;6100343;28;20102;-65
2023/08/11 04:17:47;;;;;;;6.15;1.60;;;;;;;17.15;84.45;101441.94;6101441;28;20025;-66
2023/08/11 04:20:42;;;;;;;4.90;1.50;;;;;;;17.08;83.82;101449.00;6099624;28;20025;-66
2023/08/11 04:23:37;;;;;;;6.43;2.00;;;;;;;16.97;83.83;101444.00;6103074;28;20064;-66
2023/08/11 04:26:34;;;;;;;5.80;1.70;;;;;;;17.05;84.38;101455.53;6099615;28;20307;-65
2023/08/11 04:29:29;;;;;;;6.15;1.83;;;;;;;16.96;84.17;101431.63;6099428;28;20755;-66
2023/08/11 04:32:24;;;;;;;7.20;1.63;;;;;;;16.94;84.32;101441.63;6093920;28;20036;-65
2023/08/11 04:35:20;;;;;;;5.32;1.85;;;;;;;17.18;83.95;101458.53;6098940;28;20032;-65
2023/08/11 04:38:15;;;;;;;5.90;1.93;;;;;;;17.03;84.28;101459.41;6098793;28;20032;-65
2023/08/11 04:41:10;;;;;;;11.90;1.73;;;;;;;16.91;84.70;101444.66;6099640;28;20286;-65
2023/08/11 04:44:06;;;;;;;4.50;2.10;;;;;;;16.99;84.37;101455.38;6098548;28;20278;-65
2023/08/11 04:47:01;;;;;;;6.13;1.77;;;;;;;16.98;85.09;101451.03;6099070;28;20031;-66
2023/08/11 04:49:57;;;;;;;4.90;1.70;;;;;;;17.02;84.82;101460.38;6098998;28;20016;-66
2023/08/11 04:52:52;;;;;;;5.05;1.90;;;;;;;16.97;84.37;101444.00;6099125;28;20476;-65
2023/08/11 04:55:48;;;;;;;4.37;1.63;;;;;;;17.03;84.06;101436.13;6097988;28;20033;-65
2023/08/11 04:58:43;;;;;;;3.13;1.40;;;;;;;17.35;83.19;101459.31;6098652;28;20302;-65
2023/08/11 05:01:39;;;;;;;7.03;1.70;;;;;;;17.24;83.89;101457.00;6105753;28;20038;-65
2023/08/11 05:04:34;;;;;;;6.03;2.10;;;;;;;17.27;83.73;101456.66;6099297;28;20111;-65
2023/08/11 05:07:29;;;;;;;7.17;1.80;;;;;;;17.05;84.02;101433.25;6098594;28;20021;-65
2023/08/11 05:10:25;;;;;;;5.57;2.00;;;;;;;17.42;83.74;101460.31;6098777;28;20364;-65
2023/08/11 05:13:20;;;;;;;6.03;2.10;;;;;;;17.21;83.29;101419.81;6097124;28;20158;-66
2023/08/11 05:16:16;;;;;;;5.43;1.75;;;;;;;17.44;83.23;101455.63;6098753;28;20028;-65
2023/08/11 05:19:13;;;;;;;5.68;1.75;;;;;;;17.49;83.89;101455.09;6060335;28;1097378;-65
2023/08/11 05:22:08;;;;;;;4.13;1.75;;;;;;;17.40;84.52;101456.97;6103015;28;20035;-65
2023/08/11 05:25:04;;;;;;;6.70;1.73;;;;;;;17.40;83.45;101456.97;6099076;28;20037;-65
2023/08/11 05:28:00;;;;;;;8.88;1.98;;;;;;;17.66;82.63;101451.38;6099373;28;20291;-65
2023/08/11 05:30:56;;;;;;;8.20;1.80;;;;;;;17.53;82.91;101457.28;6093675;28;20021;-65
2023/08/11 05:33:52;;;;;;;8.27;2.15;;;;;;;17.32;83.44;101448.94;6099302;28;20268;-65
2023/08/11 05:36:48;;;;;;;6.50;1.88;;;;;;;17.52;83.28;101455.59;6099523;28;20371;-65
2023/08/11 05:39:43;;;;;;;3.60;1.73;;;;;;;17.59;83.40;101458.44;6099268;28;20025;-66
2023/08/11 05:42:38;;;;;;;6.78;1.92;;;;;;;17.45;83.86;101459.97;6099197;28;20032;-65
2023/08/11 05:45:34;;;;;;;7.00;2.22;;;;;;;17.51;83.21;101464.63;6098676;28;20167;-65
2023/08/11 05:48:29;;;;;;;9.60;2.63;;;;;;;17.61;84.04;101469.84;6098934;28;20032;-65
2023/08/11 05:51:25;;;;;;;4.03;1.73;;;;;;;18.11;81.83;101472.97;6101184;28;20059;-65
2023/08/11 05:54:20;;;;;;;6.13;2.20;;;;;;;18.83;78.39;101471.63;6104317;28;20029;-65
2023/08/11 05:57:15;;;;;;;7.13;1.80;;;;;;;19.17;75.20;101465.78;6098769;28;20021;-65
2023/08/11 06:00:11;;;;;;;6.40;1.90;;;;;;;20.07;70.65;101459.19;6098971;28;20025;-65
2023/08/11 06:03:06;;;;;;;2.97;1.50;;;;;;;20.59;67.77;101461.66;6099099;28;20017;-65
2023/08/11 06:06:04;;;;;;;4.00;1.63;;;;;;;21.12;66.44;101464.78;6098491;28;20036;-65
2023/08/11 06:08:59;;;;;;;4.20;1.65;;;;;;;20.87;64.95;101450.91;6098744;28;20025;-66
2023/08/11 06:11:55;;;;;;;3.90;1.60;;;;;;;20.42;67.79;101454.00;6098673;28;20040;-65
2023/08/11 06:14:50;;;;;;;3.47;1.65;;;;;;;20.79;66.05;101459.94;6098480;28;20472;-65
2023/08/11 06:17:49;;;;;;;6.20;1.90;;;;;;;20.11;69.29;101455.06;6098578;28;20052;-66
2023/08/11 06:20:44;;;;;;;5.43;2.03;;;;;;;21.10;64.90;101456.91;6098767;28;20029;-65
2023/08/11 06:23:40;;;;;;;3.15;1.80;;;;;;;21.03;64.55;101439.81;6099837;28;20048;-65
2023/08/11 06:26:35;;;;;;;7.20;2.30;;;;;;;21.21;63.57;101453.66;6101011;28;20036;-66
2023/08/11 06:29:30;;;;;;;2.97;1.60;;;;;;;20.62;67.54;101460.41;6098369;28;20037;-66
2023/08/11 06:32:26;;;;;;;5.77;1.80;;;;;;;20.40;68.32;101454.19;6088009;28;20750;-65
2023/08/11 06:35:22;;;;;;;9.20;1.90;;;;;;;20.64;68.86;101443.03;6097683;28;20035;-65
2023/08/11 06:38:17;;;;;;;6.00;1.90;;;;;;;21.29;64.16;101460.78;6098153;28;20040;-65
2023/08/11 06:41:13;;;;;;;7.00;1.88;;;;;;;21.08;66.64;101463.53;6098302;28;20025;-66
2023/08/11 06:44:08;;;;;;;2.90;1.57;;;;;;;20.74;66.43;101448.06;6106324;28;20160;-66
2023/08/11 06:47:03;;;;;;;4.27;1.90;;;;;;;21.05;64.78;101467.44;6097811;28;20376;-66
2023/08/11 06:49:59;;;;;;;6.70;2.00;;;;;;;21.10;65.50;101475.78;6097932;28;20346;-66
2023/08/11 06:52:54;;;;;;;5.13;1.80;;;;;;;21.36;66.00;101456.28;6104636;28;20039;-66
2023/08/11 06:55:49;;;;;;;5.67;1.90;;;;;;;22.02;61.50;101470.94;6096390;28;20029;-65
2023/08/11 06:58:45;;;;;;;4.83;1.67;;;;;;;21.76;62.12;101468.94;6097357;28;20029;-66
2023/08/11 07:01:41;;;;;;;5.20;1.48;;;;;;;22.08;61.14;101453.09;6100870;28;20271;-66
2023/08/11 07:04:36;;;;;;;5.93;1.90;;;;;;;22.31;60.65;101462.50;6097777;28;20487;-65
2023/08/11 07:07:31;;;;;;;4.40;1.90;;;;;;;21.88;61.30;101469.22;6097694;28;20479;-65
2023/08/11 07:10:26;;;;;;;4.27;1.47;;;;;;;22.23;61.32;101475.41;6093675;28;20040;-66
2023/08/11 07:13:22;;;;;;;5.55;1.75;;;;;;;22.43;60.52;101455.47;6099685;28;20053;-66
2023/08/11 07:16:17;;;;;;;7.20;2.25;;;;;;;22.16;59.93;101464.56;6097551;28;20037;-66
2023/08/11 07:19:12;;;;;;;2.47;1.50;;;;;;;22.27;60.10;101455.84;6097684;28;20039;-66
2023/08/11 07:22:08;;;;;;;4.50;1.70;;;;;;;22.83;58.95;101471.78;6104385;28;20039;-65
2023/08/11 07:25:03;;;;;;;5.50;1.90;;;;;;;22.07;60.07;101459.56;6102551;28;20044;-65
2023/08/11 07:27:59;;;;;;;4.72;2.03;;;;;;;22.68;59.37;101452.22;6097585;28;20531;-66
2023/08/11 07:30:54;;;;;;;3.87;1.80;;;;;;;22.45;59.85;101482.28;6097222;28;20354;-66
2023/08/11 07:33:49;;;;;;;4.87;1.97;;;;;;;22.68;58.75;101482.78;6096941;28;20267;-66
2023/08/11 07:36:44;;;;;;;5.40;2.10;;;;;;;22.41;59.61;101473.78;6097306;28;20528;-66
2023/08/11 07:39:40;;;;;;;11.50;2.03;;;;;;;22.35;60.37;101471.03;6096991;28;20028;-66
2023/08/11 07:42:35;;;;;;;5.97;1.93;;;;;;;22.54;58.86;101484.63;6104828;28;20037;-66
2023/08/11 07:45:33;;;;;;;10.40;2.23;;;;;;;23.16;58.34;101485.28;6096396;28;20055;-66
2023/08/11 07:48:28;;;;;;;8.25;2.25;;;;;;;23.35;57.45;101471.72;6096993;28;20394;-66
2023/08/11 07:51:24;;;;;;;5.57;2.70;;;;;;;23.32;55.94;101479.47;6096939;28;20583;-66
2023/08/11 07:54:19;;;;;;;6.13;2.50;;;;;;;23.35;56.75;101466.31;6096206;28;20105;-66
2023/08/11 07:57:14;;;;;;;4.27;2.97;;;;;;;23.20;56.45;101464.88;6096689;28;20299;-66
2023/08/11 08:00:16;;;;;;;4.53;2.40;;;;;;;23.33;56.00;101471.13;6096248;28;20349;-66
2023/08/11 08:03:11;;;;;;;7.50;2.30;;;;;;;23.01;57.63;101463.88;6091501;28;20114;-66
2023/08/11 08:06:06;;;;;;;4.17;2.03;;;;;;;23.40;57.16;101471.16;6096422;28;20036;-66
2023/08/11 08:09:02;;;;;;;5.27;1.90;;;;;;;23.37;55.39;101466.13;6093194;28;20048;-66
2023/08/11 08:11:58;;;;;;;3.83;1.73;;;;;;;23.42;55.15;101467.19;6096018;28;20024;-66
2023/08/11 08:14:53;;;;;;;5.00;1.73;;;;;;;23.72;56.39;101481.06;6087096;28;20419;-66
2023/08/11 08:17:48;;;;;;;6.97;2.10;;;;;;;23.63;56.05;101475.03;6101440;28;20033;-66
2023/08/11 08:20:44;;;;;;;3.35;1.52;;;;;;;23.83;54.88;101487.69;6100851;28;20051;-66
2023/08/11 08:23:39;;;;;;;3.87;1.37;;;;;;;23.81;53.40;101470.81;6112675;28;20376;-66
2023/08/11 08:26:35;;;;;;;2.13;1.20;;;;;;;24.02;53.02;101478.66;6101067;28;20318;-66
2023/08/11 08:29:30;;;;;;;2.40;1.38;;;;;;;24.39;52.18;101464.31;6100607;28;20052;-66
2023/08/11 08:32:26;;;;;;;4.43;1.40;;;;;;;24.55;50.65;101469.19;6101078;28;20082;-66
2023/08/11 08:35:22;;;;;;;2.83;1.40;;;;;;;24.22;52.62;101465.84;6099963;28;20033;-66
2023/08/11 08:38:17;;;;;;;2.27;1.23;;;;;;;24.58;50.61;101476.91;6100840;28;20652;-66
2023/08/11 08:41:14;;;;;;;2.93;1.40;;;;;;;24.73;51.26;101482.81;6109111;28;20021;-67
2023/08/11 08:44:10;;;;;;;3.38;1.38;;;;;;;24.45;51.09;101474.28;6099963;28;20267;-66
2023/08/11 08:47:05;;;;;;;2.78;1.30;;;;;;;24.75;49.84;101479.91;6099625;28;20029;-66
2023/08/11 08:50:03;;;;;;;2.03;1.27;;;;;;;24.99;49.40;101476.41;6100404;28;20108;-66
2023/08/11 08:53:01;;;;;;;2.92;1.50;;;;;;;25.18;48.83;101469.97;6100567;28;20102;-66
2023/08/11 08:55:57;;;;;;;5.38;1.40;;;;;;;25.47;48.31;101479.31;6099600;28;20029;-66
2023/08/11 08:58:53;;;;;;;2.75;1.10;;;;;;;25.58;47.93;101469.56;6099293;28;20059;-66
2023/08/11 09:01:50;;;;;;;1.60;1.02;;;;;;;25.75;46.22;101466.03;6103775;28;20578;-66
2023/08/11 09:04:46;;;;;;;1.90;1.35;;;;;;;25.92;45.80;101471.69;6100506;28;20439;-67
2023/08/11 09:07:41;;;;;;;3.55;1.33;;;;;;;25.05;48.47;101477.41;6098797;28;20025;-66
2023/08/11 09:10:36;;;;;;;2.97;1.07;;;;;;;24.93;47.91;101471.03;6099714;28;20028;-66
2023/08/11 09:13:32;;;;;;;2.07;0.80;;;;;;;24.55;50.14;101458.34;6097812;28;20033;-66
2023/08/11 09:16:27;;;;;;;2.13;1.00;;;;;;;24.83;47.85;101455.25;6108640;28;20490;-66
2023/08/11 09:19:23;;;;;;;4.17;1.00;;;;;;;24.33;49.27;101443.47;6114992;28;20119;-66
2023/08/11 09:22:25;;;;;;;1.58;0.85;;;;;;;24.54;49.18;101428.75;6115400;28;20321;-66
2023/08/11 09:25:20;;;;;;;1.75;0.88;;;;;;;25.05;48.38;101447.53;6097874;28;20755;-66
2023/08/11 09:28:16;;;;;;;1.10;0.77;;;;;;;25.13;47.80;101433.69;6099974;28;20033;-66
2023/08/11 09:31:12;;;;;;;1.83;0.90;;;;;;;25.14;47.79;101433.44;6099762;28;20071;-66
2023/08/11 09:34:13;;;;;;;3.72;1.45;;;;;;;24.51;48.52;101440.03;6108427;28;20040;-66
2023/08/11 09:37:08;;;;;;;2.10;1.20;;;;;;;24.57;48.11;101439.16;6099548;28;20025;-66
2023/08/11 09:40:05;;;;;;;1.38;0.80;;;;;;;25.14;47.27;101424.50;6099230;28;20028;-67
2023/08/11 09:43:00;;;;;;;1.77;0.90;;;;;;;25.35;47.17;101448.50;6099287;28;20025;-66
2023/08/11 09:45:59;;;;;;;1.00;0.70;;;;;;;25.55;46.46;101449.13;6097958;28;20091;-67
2023/08/11 09:48:54;;;;;;;1.20;0.80;;;;;;;25.19;47.25;101449.09;6111269;28;20123;-66
2023/08/11 09:51:50;;;;;;;3.53;1.67;;;;;;;25.94;47.33;101443.22;6099093;28;20468;-67
2023/08/11 09:54:46;;;;;;;1.65;0.70;;;;;;;25.85;45.41;101438.31;6098009;28;20266;-67
2023/08/11 09:57:43;;;;;;;2.00;0.70;;;;;;;25.77;45.94;101439.47;6098636;28;20025;-67
2023/08/11 10:00:38;;;;;;;1.27;0.60;;;;;;;25.34;47.04;101436.81;6098575;28;20025;-66
2023/08/11 10:03:42;;;;;;;1.38;0.68;;;;;;;25.78;45.69;101424.00;6099463;28;20400;-67
2023/08/11 10:06:40;;;;;;;2.53;0.80;;;;;;;26.05;45.17;101433.47;6098824;28;20045;-67
2023/08/11 10:09:35;;;;;;;4.47;2.35;;;;;;;25.73;45.91;101435.56;6098292;28;20476;-66
2023/08/11 10:12:30;;;;;;;2.92;0.80;;;;;;;25.01;46.68;101436.28;6097382;28;20033;-67
2023/08/11 10:15:27;;;;;;;2.47;0.80;;;;;;;25.35;46.90;101440.34;6097448;28;20107;-67
2023/08/11 10:18:23;;;;;;;1.95;0.80;;;;;;;25.69;45.73;101438.94;6098088;28;20299;-67
2023/08/11 10:21:18;;;;;;;3.50;0.80;;;;;;;25.75;45.90;101441.59;6099386;28;20128;-67
2023/08/11 10:24:14;;;;;;;2.15;0.80;;;;;;;25.97;45.55;101431.91;6111385;28;20025;-67
2023/08/11 10:27:10;;;;;;;2.60;0.93;;;;;;;26.36;45.50;101424.25;6097863;28;20446;-67
2023/08/11 10:30:07;;;;;;;4.93;1.33;;;;;;;26.30;45.43;101425.19;6097920;28;20453;-67
2023/08/11 10:33:04;;;;;;;2.85;1.05;;;;;;;26.58;44.57;101407.13;6097161;28;20471;-67
2023/08/11 10:36:00;;;;;;;1.88;0.90;;;;;;;26.13;44.88;101413.25;6101510;28;20115;-67
2023/08/11 10:39:04;;;;;;;4.35;0.82;;;;;;;26.61;43.64;101424.88;6097987;28;20037;-67
2023/08/11 10:42:02;;;;;;;1.65;0.88;;;;;;;26.87;44.15;101408.16;6098152;28;20033;-67
2023/08/11 10:45:08;;;;;;;2.08;0.65;;;;;;;27.10;42.56;101410.03;6097088;28;20025;-67
2023/08/11 10:48:08;;;;;;;1.73;0.93;;;;;;;26.44;45.18;101422.00;6095258;28;20032;-67
2023/08/11 10:51:03;;;;;;;1.90;1.00;;;;;;;26.61;44.08;101412.13;6097790;28;20049;-67
2023/08/11 10:54:11;;;;;;;2.17;0.87;;;;;;;27.05;43.02;101416.22;6097584;28;20043;-67
2023/08/11 10:57:07;;;;;;;1.63;0.82;;;;;;;27.40;42.79;101398.97;6097673;28;20036;-67
2023/08/11 11:00:03;;;;;;;2.08;0.93;;;;;;;27.31;43.26;101411.34;6097996;28;20017;-66
2023/08/11 11:02:59;;;;;;;1.58;0.90;;;;;;;27.03;41.56;101398.44;6097512;28;20029;-67
2023/08/11 11:05:54;;;;;;;1.67;1.00;;;;;;;26.67;43.86;101393.19;6096928;28;20354;-67
2023/08/11 11:08:49;;;;;;;2.10;1.00;;;;;;;26.59;42.95;101407.97;6100547;28;20460;-67
2023/08/11 11:11:45;;;;;;;3.00;1.20;;;;;;;27.27;43.04;101399.25;6097546;28;20033;-67
2023/08/11 11:14:41;;;;;;;1.70;1.00;;;;;;;27.23;42.65;101408.97;6097152;28;20357;-67
2023/08/11 11:17:37;;;;;;;4.18;1.20;;;;;;;26.57;43.56;101380.19;6097609;28;20036;-67
2023/08/11 11:20:32;;;;;;;4.05;1.30;;;;;;;26.39;43.87;101407.47;6097451;28;20033;-67
2023/08/11 11:23:28;;;;;;;2.93;1.20;;;;;;;26.67;43.92;101399.47;6097386;28;20036;-67
2023/08/11 11:26:33;;;;;;;4.13;1.47;;;;;;;26.49;43.18;101407.72;6093879;28;20040;-67
2023/08/11 11:29:28;;;;;;;3.75;1.70;;;;;;;26.75;43.59;101392.84;6097689;28;20091;-67
2023/08/11 11:32:23;;;;;;;3.63;1.73;;;;;;;26.95;44.18;101386.03;6097801;28;20032;-68
2023/08/11 11:35:19;;;;;;;5.20;1.35;;;;;;;27.54;43.10;101382.16;6099347;28;20083;-67
2023/08/11 11:38:14;;;;;;;4.23;1.50;;;;;;;27.34;42.26;101370.00;6101493;28;20040;-67
2023/08/11 11:41:11;;;;;;;2.83;1.30;;;;;;;27.09;43.18;101382.00;6102247;28;20374;-67
2023/08/11 11:44:06;;;;;;;6.32;1.27;;;;;;;27.45;43.07;101382.81;6096672;28;20290;-67
2023/08/11 11:47:05;;;;;;;2.90;1.40;;;;;;;27.38;41.85;101366.53;6085321;28;20029;-67
2023/08/11 11:50:06;;;;;;;2.63;1.10;;;;;;;28.22;41.94;101376.69;6099061;28;20029;-67
2023/08/11 11:53:03;;;;;;;3.80;1.50;;;;;;;28.18;41.57;101370.06;6097160;28;20021;-65
2023/08/11 11:55:58;;;;;;;4.45;1.38;;;;;;;27.96;42.43;101366.38;6095671;28;20037;-66
2023/08/11 11:58:55;;;;;;;3.67;1.30;;;;;;;27.71;42.57;101366.72;6091002;28;20045;-66
2023/08/11 12:01:50;;;;;;;4.75;1.20;;;;;;;27.70;42.21;101372.38;6100585;28;20647;-66
2023/08/11 12:04:47;;;;;;;3.03;1.40;;;;;;;27.27;41.89;101372.84;6092659;28;20064;-65
2023/08/11 12:07:42;;;;;;;4.05;1.73;;;;;;;27.46;42.26;101365.38;6097356;28;20052;-66
2023/08/11 12:10:37;;;;;;;3.17;1.25;;;;;;;28.44;42.19;101354.13;6094971;28;20025;-65
2023/08/11 12:13:40;;;;;;;4.73;1.50;;;;;;;29.13;40.39;101350.84;6113710;28;20472;-66
2023/08/11 12:16:35;;;;;;;2.70;1.60;;;;;;;28.22;41.11;101360.31;6098036;28;20037;-65
2023/08/11 12:19:31;;;;;;;2.35;1.30;;;;;;;28.72;39.92;101343.16;6094161;28;20063;-65
2023/08/11 12:22:26;;;;;;;3.63;1.27;;;;;;;27.97;41.08;101343.47;6098537;28;20081;-66
2023/08/11 12:25:22;;;;;;;3.00;1.40;;;;;;;28.47;41.21;101350.91;6092240;28;20368;-66
2023/08/11 12:28:19;;;;;;;3.90;1.33;;;;;;;28.89;40.63;101343.94;6094995;28;20020;-66
2023/08/11 12:31:14;;;;;;;3.40;1.52;;;;;;;28.99;40.94;101338.63;6099907;28;20040;-66
2023/08/11 12:34:09;;;;;;;6.13;1.77;;;;;;;29.05;40.63;101354.00;6095522;28;20028;-66
2023/08/11 12:37:05;;;;;;;3.37;1.47;;;;;;;28.63;41.06;101333.72;6100341;28;20476;-66
2023/08/11 12:40:00;;;;;;;3.38;1.40;;;;;;;28.81;39.94;101341.63;6100362;28;20023;-66
2023/08/11 12:42:56;;;;;;;5.70;1.47;;;;;;;28.86;40.65;101349.91;6099524;28;20025;-66
2023/08/11 12:45:51;;;;;;;2.95;1.50;;;;;;;28.68;40.40;101350.16;6094577;28;20099;-66
2023/08/11 12:48:48;;;;;;;3.77;1.60;;;;;;;28.99;40.84;101349.56;6097315;28;20110;-66
2023/08/11 12:51:44;;;;;;;4.70;1.30;;;;;;;29.09;39.29;101349.69;6088694;28;20147;-66
2023/08/11 12:54:39;;;;;;;6.30;1.60;;;;;;;29.60;39.11;101328.50;6099655;28;20097;-67
2023/08/11 12:57:35;;;;;;;4.07;1.70;;;;;;;29.92;38.52;101321.19;6094443;28;20017;-66
2023/08/11 13:00:31;;;;;;;4.97;1.85;;;;;;;29.90;38.77;101345.22;6099951;28;20299;-66
2023/08/11 13:03:27;;;;;;;3.30;1.33;;;;;;;29.92;39.34;101326.66;6088471;28;20105;-66
2023/08/11 13:06:23;;;;;;;3.67;1.67;;;;;;;29.57;39.17;101334.47;6100101;28;20041;-66
2023/08/11 13:09:18;;;;;;;5.80;1.70;;;;;;;29.63;38.31;101317.00;6100224;28;20494;-66
2023/08/11 13:12:13;;;;;;;2.57;1.40;;;;;;;29.46;38.11;101323.41;6100074;28;20016;-66
2023/08/11 13:15:25;;;;;;;4.63;1.80;;;;;;;29.40;39.39;101329.91;6091671;28;20119;-67
2023/08/11 13:18:22;;;;;;;3.55;1.63;;;;;;;29.18;39.00;101309.91;6102422;28;20322;-66
2023/08/11 13:21:17;;;;;;;3.90;1.60;;;;;;;29.15;39.32;101326.81;6099408;28;20028;-67
2023/08/11 13:24:12;;;;;;;4.43;1.60;;;;;;;29.00;39.47;101296.53;6098253;28;20277;-67
2023/08/11 13:27:08;;;;;;;4.63;1.70;;;;;;;28.96;40.34;101303.63;6104922;28;20163;-66
2023/08/11 13:30:11;;;;;;;4.47;1.57;;;;;;;28.74;39.91;101306.31;6099547;28;20298;-66
2023/08/11 13:33:06;;;;;;;2.47;1.50;;;;;;;28.73;40.16;101301.09;6100196;28;20366;-66
2023/08/11 13:36:03;;;;;;;2.13;1.40;;;;;;;28.87;40.27;101307.84;6099027;28;20025;-66
2023/08/11 13:38:59;;;;;;;4.50;1.50;;;;;;;28.75;40.63;101288.03;6099602;28;20033;-66